sensor_id;sensor_type;location;lat;lon;timestamp;P1;durP1;ratioP1;P2;durP2;ratioP2
10315;SDS011;5203;48.976;8.306;2022-07-05T00:00:43;4.20;;;3.90;;
10315;SDS011;5203;48.976;8.306;2022-07-05T00:03:09;4.00;;;3.78;;
10315;SDS011;5203;48.976;8.306;2022-07-05T00:05:36;4.32;;;3.92;;
10315;SDS011;5203;48.976;8.306;2022-07-05T00:08:02;4.07;;;3.78;;
10315;SDS011;5203;48.976;8.306;2022-07-05T00:10:29;3.75;;;3.55;;
10315;SDS011;5203;48.976;8.306;2022-07-05T00:12:56;4.00;;;3.80;;
10315;SDS011;5203;48.976;8.306;2022-07-05T00:15:21;4.20;;;3.90;;
10315;SDS011;5203;48.976;8.306;2022-07-05T00:17:48;4.55;;;3.90;;
10315;SDS011;5203;48.976;8.306;2022-07-05T00:20:14;4.03;;;3.60;;
10315;SDS011;5203;48.976;8.306;2022-07-05T00:22:40;3.90;;;3.60;;
10315;SDS011;5203;48.976;8.306;2022-07-05T00:25:07;4.47;;;3.55;;
10315;SDS011;5203;48.976;8.306;2022-07-05T00:27:33;4.13;;;3.85;;
10315;SDS011;5203;48.976;8.306;2022-07-05T00:30:02;4.20;;;3.95;;
10315;SDS011;5203;48.976;8.306;2022-07-05T00:32:29;3.80;;;3.50;;
10315;SDS011;5203;48.976;8.306;2022-07-05T00:34:55;5.50;;;3.60;;
10315;SDS011;5203;48.976;8.306;2022-07-05T00:37:20;4.18;;;3.88;;
10315;SDS011;5203;48.976;8.306;2022-07-05T00:39:46;3.72;;;3.53;;
10315;SDS011;5203;48.976;8.306;2022-07-05T00:42:12;5.13;;;3.70;;
10315;SDS011;5203;48.976;8.306;2022-07-05T00:44:38;4.28;;;3.88;;
10315;SDS011;5203;48.976;8.306;2022-07-05T00:47:06;3.30;;;3.10;;
10315;SDS011;5203;48.976;8.306;2022-07-05T00:49:35;3.70;;;3.17;;
10315;SDS011;5203;48.976;8.306;2022-07-05T00:52:02;3.78;;;3.50;;
10315;SDS011;5203;48.976;8.306;2022-07-05T00:54:29;3.60;;;3.38;;
10315;SDS011;5203;48.976;8.306;2022-07-05T00:56:58;4.07;;;3.70;;
10315;SDS011;5203;48.976;8.306;2022-07-05T00:59:25;3.67;;;3.33;;
10315;SDS011;5203;48.976;8.306;2022-07-05T01:01:51;3.90;;;3.60;;
10315;SDS011;5203;48.976;8.306;2022-07-05T01:04:17;3.97;;;3.65;;
10315;SDS011;5203;48.976;8.306;2022-07-05T01:06:44;3.85;;;3.55;;
10315;SDS011;5203;48.976;8.306;2022-07-05T01:09:12;3.83;;;3.53;;
10315;SDS011;5203;48.976;8.306;2022-07-05T01:11:45;3.45;;;3.25;;
10315;SDS011;5203;48.976;8.306;2022-07-05T01:14:13;3.58;;;3.38;;
10315;SDS011;5203;48.976;8.306;2022-07-05T01:16:43;3.55;;;3.35;;
10315;SDS011;5203;48.976;8.306;2022-07-05T01:19:10;3.75;;;3.53;;
10315;SDS011;5203;48.976;8.306;2022-07-05T01:21:43;3.65;;;3.45;;
10315;SDS011;5203;48.976;8.306;2022-07-05T01:24:12;3.60;;;3.40;;
10315;SDS011;5203;48.976;8.306;2022-07-05T01:26:40;3.72;;;3.45;;
10315;SDS011;5203;48.976;8.306;2022-07-05T01:29:07;3.90;;;3.60;;
10315;SDS011;5203;48.976;8.306;2022-07-05T01:31:37;3.83;;;3.53;;
10315;SDS011;5203;48.976;8.306;2022-07-05T01:34:03;3.75;;;3.50;;
10315;SDS011;5203;48.976;8.306;2022-07-05T01:36:29;3.88;;;3.67;;
10315;SDS011;5203;48.976;8.306;2022-07-05T01:38:55;4.32;;;3.95;;
10315;SDS011;5203;48.976;8.306;2022-07-05T01:41:21;4.07;;;3.78;;
10315;SDS011;5203;48.976;8.306;2022-07-05T01:43:47;4.00;;;3.80;;
10315;SDS011;5203;48.976;8.306;2022-07-05T01:46:12;4.00;;;3.60;;
10315;SDS011;5203;48.976;8.306;2022-07-05T01:48:42;4.45;;;3.88;;
10315;SDS011;5203;48.976;8.306;2022-07-05T01:51:10;4.00;;;3.80;;
10315;SDS011;5203;48.976;8.306;2022-07-05T01:53:43;3.90;;;3.70;;
10315;SDS011;5203;48.976;8.306;2022-07-05T01:56:11;3.97;;;3.78;;
10315;SDS011;5203;48.976;8.306;2022-07-05T01:58:37;4.22;;;4.03;;
10315;SDS011;5203;48.976;8.306;2022-07-05T02:01:04;4.40;;;4.00;;
10315;SDS011;5203;48.976;8.306;2022-07-05T02:03:30;4.32;;;3.97;;
10315;SDS011;5203;48.976;8.306;2022-07-05T02:05:55;4.38;;;3.97;;
10315;SDS011;5203;48.976;8.306;2022-07-05T02:08:21;4.20;;;4.00;;
10315;SDS011;5203;48.976;8.306;2022-07-05T02:10:54;4.30;;;4.03;;
10315;SDS011;5203;48.976;8.306;2022-07-05T02:13:20;4.47;;;4.18;;
10315;SDS011;5203;48.976;8.306;2022-07-05T02:15:46;4.55;;;4.25;;
10315;SDS011;5203;48.976;8.306;2022-07-05T02:18:12;4.18;;;3.88;;
10315;SDS011;5203;48.976;8.306;2022-07-05T02:20:38;4.15;;;3.85;;
10315;SDS011;5203;48.976;8.306;2022-07-05T02:23:05;4.60;;;4.30;;
10315;SDS011;5203;48.976;8.306;2022-07-05T02:25:32;4.22;;;4.00;;
10315;SDS011;5203;48.976;8.306;2022-07-05T02:27:58;6.18;;;4.25;;
10315;SDS011;5203;48.976;8.306;2022-07-05T02:30:24;5.18;;;4.20;;
10315;SDS011;5203;48.976;8.306;2022-07-05T02:32:50;4.38;;;4.05;;
10315;SDS011;5203;48.976;8.306;2022-07-05T02:35:16;4.70;;;4.40;;
10315;SDS011;5203;48.976;8.306;2022-07-05T02:37:41;4.32;;;4.13;;
10315;SDS011;5203;48.976;8.306;2022-07-05T02:40:07;4.55;;;4.25;;
10315;SDS011;5203;48.976;8.306;2022-07-05T02:42:35;4.05;;;3.85;;
10315;SDS011;5203;48.976;8.306;2022-07-05T02:45:02;4.50;;;4.20;;
10315;SDS011;5203;48.976;8.306;2022-07-05T02:47:29;4.70;;;4.40;;
10315;SDS011;5203;48.976;8.306;2022-07-05T02:49:56;4.68;;;4.38;;
10315;SDS011;5203;48.976;8.306;2022-07-05T02:52:28;4.65;;;4.45;;
10315;SDS011;5203;48.976;8.306;2022-07-05T02:54:54;4.05;;;3.85;;
10315;SDS011;5203;48.976;8.306;2022-07-05T02:57:19;5.00;;;4.60;;
10315;SDS011;5203;48.976;8.306;2022-07-05T02:59:45;4.78;;;4.30;;
10315;SDS011;5203;48.976;8.306;2022-07-05T03:02:11;4.65;;;4.45;;
10315;SDS011;5203;48.976;8.306;2022-07-05T03:04:37;4.43;;;4.13;;
10315;SDS011;5203;48.976;8.306;2022-07-05T03:07:02;4.82;;;4.53;;
10315;SDS011;5203;48.976;8.306;2022-07-05T03:09:28;5.53;;;5.10;;
10315;SDS011;5203;48.976;8.306;2022-07-05T03:11:54;4.93;;;4.70;;
10315;SDS011;5203;48.976;8.306;2022-07-05T03:14:20;5.63;;;5.15;;
10315;SDS011;5203;48.976;8.306;2022-07-05T03:16:45;5.38;;;5.05;;
10315;SDS011;5203;48.976;8.306;2022-07-05T03:19:11;5.80;;;5.47;;
10315;SDS011;5203;48.976;8.306;2022-07-05T03:21:37;5.28;;;4.93;;
10315;SDS011;5203;48.976;8.306;2022-07-05T03:24:03;5.78;;;5.38;;
10315;SDS011;5203;48.976;8.306;2022-07-05T03:26:29;5.57;;;5.13;;
10315;SDS011;5203;48.976;8.306;2022-07-05T03:28:54;5.18;;;4.85;;
10315;SDS011;5203;48.976;8.306;2022-07-05T03:31:20;5.28;;;4.97;;
10315;SDS011;5203;48.976;8.306;2022-07-05T03:33:46;5.50;;;5.20;;
10315;SDS011;5203;48.976;8.306;2022-07-05T03:36:12;5.63;;;5.22;;
10315;SDS011;5203;48.976;8.306;2022-07-05T03:38:37;5.45;;;5.18;;
10315;SDS011;5203;48.976;8.306;2022-07-05T03:41:03;5.32;;;5.03;;
10315;SDS011;5203;48.976;8.306;2022-07-05T03:43:29;5.78;;;5.38;;
10315;SDS011;5203;48.976;8.306;2022-07-05T03:45:55;5.05;;;4.85;;
10315;SDS011;5203;48.976;8.306;2022-07-05T03:48:21;5.68;;;5.18;;
10315;SDS011;5203;48.976;8.306;2022-07-05T03:50:46;5.47;;;4.82;;
10315;SDS011;5203;48.976;8.306;2022-07-05T03:53:12;5.07;;;4.88;;
10315;SDS011;5203;48.976;8.306;2022-07-05T03:55:38;5.40;;;5.15;;
10315;SDS011;5203;48.976;8.306;2022-07-05T03:58:04;5.38;;;4.97;;
10315;SDS011;5203;48.976;8.306;2022-07-05T04:00:29;5.45;;;5.15;;
10315;SDS011;5203;48.976;8.306;2022-07-05T04:02:55;5.18;;;4.80;;
10315;SDS011;5203;48.976;8.306;2022-07-05T04:05:21;5.47;;;4.97;;
10315;SDS011;5203;48.976;8.306;2022-07-05T04:07:50;5.68;;;5.38;;
10315;SDS011;5203;48.976;8.306;2022-07-05T04:10:17;5.85;;;5.50;;
10315;SDS011;5203;48.976;8.306;2022-07-05T04:12:43;10.35;;;6.03;;
10315;SDS011;5203;48.976;8.306;2022-07-05T04:15:09;5.65;;;5.35;;
10315;SDS011;5203;48.976;8.306;2022-07-05T04:17:45;5.57;;;5.20;;
10315;SDS011;5203;48.976;8.306;2022-07-05T04:20:14;6.20;;;5.60;;
10315;SDS011;5203;48.976;8.306;2022-07-05T04:22:40;5.60;;;5.30;;
10315;SDS011;5203;48.976;8.306;2022-07-05T04:25:06;5.32;;;5.03;;
10315;SDS011;5203;48.976;8.306;2022-07-05T04:27:42;5.55;;;5.22;;
10315;SDS011;5203;48.976;8.306;2022-07-05T04:30:09;7.68;;;5.53;;
10315;SDS011;5203;48.976;8.306;2022-07-05T04:32:35;7.47;;;6.05;;
10315;SDS011;5203;48.976;8.306;2022-07-05T04:35:01;6.03;;;5.53;;
10315;SDS011;5203;48.976;8.306;2022-07-05T04:37:27;6.20;;;5.60;;
10315;SDS011;5203;48.976;8.306;2022-07-05T04:39:53;7.78;;;5.82;;
10315;SDS011;5203;48.976;8.306;2022-07-05T04:42:18;7.15;;;6.05;;
10315;SDS011;5203;48.976;8.306;2022-07-05T04:44:44;5.88;;;5.47;;
10315;SDS011;5203;48.976;8.306;2022-07-05T04:47:10;7.50;;;6.43;;
10315;SDS011;5203;48.976;8.306;2022-07-05T04:49:36;7.88;;;5.90;;
10315;SDS011;5203;48.976;8.306;2022-07-05T04:52:02;6.45;;;5.82;;
10315;SDS011;5203;48.976;8.306;2022-07-05T04:54:27;6.22;;;5.63;;
10315;SDS011;5203;48.976;8.306;2022-07-05T04:56:53;6.32;;;5.82;;
10315;SDS011;5203;48.976;8.306;2022-07-05T04:59:19;6.88;;;6.30;;
10315;SDS011;5203;48.976;8.306;2022-07-05T05:01:45;6.95;;;6.32;;
10315;SDS011;5203;48.976;8.306;2022-07-05T05:04:10;6.07;;;5.70;;
10315;SDS011;5203;48.976;8.306;2022-07-05T05:06:36;5.90;;;5.50;;
10315;SDS011;5203;48.976;8.306;2022-07-05T05:09:02;6.18;;;5.85;;
10315;SDS011;5203;48.976;8.306;2022-07-05T05:11:28;5.40;;;5.00;;
10315;SDS011;5203;48.976;8.306;2022-07-05T05:13:54;5.88;;;5.55;;
10315;SDS011;5203;48.976;8.306;2022-07-05T05:16:20;5.47;;;5.10;;
10315;SDS011;5203;48.976;8.306;2022-07-05T05:18:45;5.18;;;4.82;;
10315;SDS011;5203;48.976;8.306;2022-07-05T05:21:11;5.07;;;4.78;;
10315;SDS011;5203;48.976;8.306;2022-07-05T05:23:37;5.18;;;4.75;;
10315;SDS011;5203;48.976;8.306;2022-07-05T05:26:03;5.22;;;4.88;;
10315;SDS011;5203;48.976;8.306;2022-07-05T05:28:29;4.78;;;4.47;;
10315;SDS011;5203;48.976;8.306;2022-07-05T05:30:55;5.30;;;4.10;;
10315;SDS011;5203;48.976;8.306;2022-07-05T05:33:20;4.75;;;4.45;;
10315;SDS011;5203;48.976;8.306;2022-07-05T05:35:46;4.93;;;4.63;;
10315;SDS011;5203;48.976;8.306;2022-07-05T05:38:12;4.63;;;4.32;;
10315;SDS011;5203;48.976;8.306;2022-07-05T05:40:38;4.93;;;4.63;;
10315;SDS011;5203;48.976;8.306;2022-07-05T05:43:06;4.70;;;4.40;;
10315;SDS011;5203;48.976;8.306;2022-07-05T05:45:31;4.95;;;4.55;;
10315;SDS011;5203;48.976;8.306;2022-07-05T05:47:58;5.35;;;4.95;;
10315;SDS011;5203;48.976;8.306;2022-07-05T05:50:25;5.55;;;5.05;;
10315;SDS011;5203;48.976;8.306;2022-07-05T05:52:55;5.50;;;5.10;;
10315;SDS011;5203;48.976;8.306;2022-07-05T05:55:22;5.85;;;5.45;;
10315;SDS011;5203;48.976;8.306;2022-07-05T05:57:48;5.68;;;5.10;;
10315;SDS011;5203;48.976;8.306;2022-07-05T06:00:14;6.40;;;5.93;;
10315;SDS011;5203;48.976;8.306;2022-07-05T06:02:41;5.53;;;5.13;;
10315;SDS011;5203;48.976;8.306;2022-07-05T06:05:07;5.88;;;5.30;;
10315;SDS011;5203;48.976;8.306;2022-07-05T06:07:44;5.43;;;5.13;;
10315;SDS011;5203;48.976;8.306;2022-07-05T06:10:15;6.82;;;6.40;;
10315;SDS011;5203;48.976;8.306;2022-07-05T06:12:42;6.10;;;5.80;;
10315;SDS011;5203;48.976;8.306;2022-07-05T06:15:08;6.18;;;5.78;;
10315;SDS011;5203;48.976;8.306;2022-07-05T06:17:37;6.55;;;6.05;;
10315;SDS011;5203;48.976;8.306;2022-07-05T06:20:07;6.30;;;5.80;;
10315;SDS011;5203;48.976;8.306;2022-07-05T06:22:33;5.75;;;5.45;;
10315;SDS011;5203;48.976;8.306;2022-07-05T06:25:00;6.10;;;5.60;;
10315;SDS011;5203;48.976;8.306;2022-07-05T06:27:26;6.22;;;5.93;;
10315;SDS011;5203;48.976;8.306;2022-07-05T06:29:51;7.20;;;6.70;;
10315;SDS011;5203;48.976;8.306;2022-07-05T06:32:17;6.25;;;5.85;;
10315;SDS011;5203;48.976;8.306;2022-07-05T06:34:43;6.32;;;5.93;;
10315;SDS011;5203;48.976;8.306;2022-07-05T06:37:08;6.72;;;6.22;;
10315;SDS011;5203;48.976;8.306;2022-07-05T06:39:34;6.35;;;6.00;;
10315;SDS011;5203;48.976;8.306;2022-07-05T06:42:00;6.50;;;6.10;;
10315;SDS011;5203;48.976;8.306;2022-07-05T06:44:26;6.18;;;5.78;;
10315;SDS011;5203;48.976;8.306;2022-07-05T06:46:51;6.47;;;5.97;;
10315;SDS011;5203;48.976;8.306;2022-07-05T06:49:17;6.28;;;5.82;;
10315;SDS011;5203;48.976;8.306;2022-07-05T06:51:43;6.07;;;5.68;;
10315;SDS011;5203;48.976;8.306;2022-07-05T06:54:09;5.88;;;5.55;;
10315;SDS011;5203;48.976;8.306;2022-07-05T06:56:35;6.20;;;5.60;;
10315;SDS011;5203;48.976;8.306;2022-07-05T06:59:01;8.30;;;5.70;;
10315;SDS011;5203;48.976;8.306;2022-07-05T07:01:27;5.95;;;5.47;;
10315;SDS011;5203;48.976;8.306;2022-07-05T07:03:55;5.65;;;5.20;;
10315;SDS011;5203;48.976;8.306;2022-07-05T07:06:21;5.95;;;5.55;;
10315;SDS011;5203;48.976;8.306;2022-07-05T07:08:47;5.72;;;5.22;;
10315;SDS011;5203;48.976;8.306;2022-07-05T07:11:31;5.20;;;4.72;;
10315;SDS011;5203;48.976;8.306;2022-07-05T07:13:57;5.20;;;4.80;;
10315;SDS011;5203;48.976;8.306;2022-07-05T07:16:23;5.13;;;4.72;;
10315;SDS011;5203;48.976;8.306;2022-07-05T07:18:49;4.88;;;4.60;;
10315;SDS011;5203;48.976;8.306;2022-07-05T07:21:15;5.20;;;4.60;;
10315;SDS011;5203;48.976;8.306;2022-07-05T07:23:40;5.03;;;4.68;;
10315;SDS011;5203;48.976;8.306;2022-07-05T07:26:06;4.82;;;4.43;;
10315;SDS011;5203;48.976;8.306;2022-07-05T07:28:32;6.13;;;4.53;;
10315;SDS011;5203;48.976;8.306;2022-07-05T07:30:57;4.63;;;4.28;;
10315;SDS011;5203;48.976;8.306;2022-07-05T07:33:23;4.85;;;4.50;;
10315;SDS011;5203;48.976;8.306;2022-07-05T07:35:49;4.35;;;4.05;;
10315;SDS011;5203;48.976;8.306;2022-07-05T07:38:15;4.95;;;4.03;;
10315;SDS011;5203;48.976;8.306;2022-07-05T07:40:40;4.60;;;4.20;;
10315;SDS011;5203;48.976;8.306;2022-07-05T07:43:06;4.90;;;4.25;;
10315;SDS011;5203;48.976;8.306;2022-07-05T07:45:32;4.38;;;3.97;;
10315;SDS011;5203;48.976;8.306;2022-07-05T07:47:57;4.20;;;3.90;;
10315;SDS011;5203;48.976;8.306;2022-07-05T07:50:23;15.10;;;10.65;;
10315;SDS011;5203;48.976;8.306;2022-07-05T07:52:49;4.82;;;4.43;;
10315;SDS011;5203;48.976;8.306;2022-07-05T07:55:14;5.13;;;4.47;;
10315;SDS011;5203;48.976;8.306;2022-07-05T07:57:40;4.70;;;4.30;;
10315;SDS011;5203;48.976;8.306;2022-07-05T08:00:06;7.13;;;4.50;;
10315;SDS011;5203;48.976;8.306;2022-07-05T08:02:33;4.40;;;4.00;;
10315;SDS011;5203;48.976;8.306;2022-07-05T08:04:58;4.63;;;4.18;;
10315;SDS011;5203;48.976;8.306;2022-07-05T08:07:24;4.85;;;4.22;;
10315;SDS011;5203;48.976;8.306;2022-07-05T08:09:51;6.13;;;4.35;;
10315;SDS011;5203;48.976;8.306;2022-07-05T08:12:18;4.63;;;4.22;;
10315;SDS011;5203;48.976;8.306;2022-07-05T08:14:44;4.57;;;4.22;;
10315;SDS011;5203;48.976;8.306;2022-07-05T08:17:11;4.80;;;4.43;;
10315;SDS011;5203;48.976;8.306;2022-07-05T08:19:38;4.95;;;4.57;;
10315;SDS011;5203;48.976;8.306;2022-07-05T08:22:22;4.85;;;4.30;;
10315;SDS011;5203;48.976;8.306;2022-07-05T08:24:48;4.50;;;4.10;;
10315;SDS011;5203;48.976;8.306;2022-07-05T08:27:14;4.80;;;4.50;;
10315;SDS011;5203;48.976;8.306;2022-07-05T08:29:42;4.55;;;4.25;;
10315;SDS011;5203;48.976;8.306;2022-07-05T08:32:08;4.40;;;4.18;;
10315;SDS011;5203;48.976;8.306;2022-07-05T08:34:34;4.68;;;4.25;;
10315;SDS011;5203;48.976;8.306;2022-07-05T08:37:00;4.72;;;4.43;;
10315;SDS011;5203;48.976;8.306;2022-07-05T08:39:26;5.07;;;4.68;;
10315;SDS011;5203;48.976;8.306;2022-07-05T08:41:52;5.05;;;4.65;;
10315;SDS011;5203;48.976;8.306;2022-07-05T08:44:20;5.30;;;4.85;;
10315;SDS011;5203;48.976;8.306;2022-07-05T08:46:47;5.43;;;4.97;;
10315;SDS011;5203;48.976;8.306;2022-07-05T08:49:16;5.22;;;4.88;;
10315;SDS011;5203;48.976;8.306;2022-07-05T08:51:50;5.82;;;5.43;;
10315;SDS011;5203;48.976;8.306;2022-07-05T08:54:16;5.43;;;5.15;;
10315;SDS011;5203;48.976;8.306;2022-07-05T08:56:45;6.00;;;5.60;;
10315;SDS011;5203;48.976;8.306;2022-07-05T08:59:11;5.65;;;5.35;;
10315;SDS011;5203;48.976;8.306;2022-07-05T09:01:38;5.95;;;5.55;;
10315;SDS011;5203;48.976;8.306;2022-07-05T09:04:04;5.60;;;5.22;;
10315;SDS011;5203;48.976;8.306;2022-07-05T09:06:32;6.03;;;5.60;;
10315;SDS011;5203;48.976;8.306;2022-07-05T09:09:00;5.90;;;5.40;;
10315;SDS011;5203;48.976;8.306;2022-07-05T09:14:01;5.45;;;5.25;;
10315;SDS011;5203;48.976;8.306;2022-07-05T09:16:28;5.93;;;5.45;;
10315;SDS011;5203;48.976;8.306;2022-07-05T09:18:55;5.95;;;5.57;;
10315;SDS011;5203;48.976;8.306;2022-07-05T09:21:24;5.95;;;5.55;;
10315;SDS011;5203;48.976;8.306;2022-07-05T09:23:58;5.75;;;5.35;;
10315;SDS011;5203;48.976;8.306;2022-07-05T09:26:29;6.20;;;5.90;;
10315;SDS011;5203;48.976;8.306;2022-07-05T09:29:04;6.40;;;5.85;;
10315;SDS011;5203;48.976;8.306;2022-07-05T09:31:34;5.88;;;5.38;;
10315;SDS011;5203;48.976;8.306;2022-07-05T09:34:08;5.20;;;4.72;;
10315;SDS011;5203;48.976;8.306;2022-07-05T09:36:55;5.03;;;4.82;;
10315;SDS011;5203;48.976;8.306;2022-07-05T09:39:35;4.90;;;4.70;;
10315;SDS011;5203;48.976;8.306;2022-07-05T09:42:21;5.20;;;4.90;;
10315;SDS011;5203;48.976;8.306;2022-07-05T09:44:52;4.85;;;4.65;;
10315;SDS011;5203;48.976;8.306;2022-07-05T09:47:20;5.60;;;5.10;;
10315;SDS011;5203;48.976;8.306;2022-07-05T09:49:48;5.10;;;4.60;;
10315;SDS011;5203;48.976;8.306;2022-07-05T09:55:03;5.85;;;4.55;;
10315;SDS011;5203;48.976;8.306;2022-07-05T09:57:40;5.07;;;4.07;;
10315;SDS011;5203;48.976;8.306;2022-07-05T10:07:42;5.43;;;5.00;;
10315;SDS011;5203;48.976;8.306;2022-07-05T10:10:30;5.22;;;4.93;;
10315;SDS011;5203;48.976;8.306;2022-07-05T10:12:57;5.30;;;5.00;;
10315;SDS011;5203;48.976;8.306;2022-07-05T10:15:26;4.93;;;4.63;;
10315;SDS011;5203;48.976;8.306;2022-07-05T10:18:04;5.40;;;5.10;;
10315;SDS011;5203;48.976;8.306;2022-07-05T10:23:06;6.57;;;5.40;;
10315;SDS011;5203;48.976;8.306;2022-07-05T10:25:37;5.60;;;5.07;;
10315;SDS011;5203;48.976;8.306;2022-07-05T10:28:05;5.38;;;4.97;;
10315;SDS011;5203;48.976;8.306;2022-07-05T10:30:32;5.38;;;5.07;;
10315;SDS011;5203;48.976;8.306;2022-07-05T10:33:02;5.60;;;5.10;;
10315;SDS011;5203;48.976;8.306;2022-07-05T10:35:29;4.75;;;4.45;;
10315;SDS011;5203;48.976;8.306;2022-07-05T10:37:55;5.40;;;5.05;;
10315;SDS011;5203;48.976;8.306;2022-07-05T10:40:22;5.32;;;5.03;;
10315;SDS011;5203;48.976;8.306;2022-07-05T10:42:50;4.95;;;4.65;;
10315;SDS011;5203;48.976;8.306;2022-07-05T10:45:23;5.70;;;5.30;;
10315;SDS011;5203;48.976;8.306;2022-07-05T10:50:43;6.18;;;5.88;;
10315;SDS011;5203;48.976;8.306;2022-07-05T10:53:14;6.03;;;5.63;;
10315;SDS011;5203;48.976;8.306;2022-07-05T10:55:57;5.50;;;5.30;;
10315;SDS011;5203;48.976;8.306;2022-07-05T10:58:28;5.78;;;5.38;;
10315;SDS011;5203;48.976;8.306;2022-07-05T11:11:40;6.10;;;5.78;;
10315;SDS011;5203;48.976;8.306;2022-07-05T11:16:46;6.07;;;5.88;;
10315;SDS011;5203;48.976;8.306;2022-07-05T11:19:13;6.03;;;5.53;;
10315;SDS011;5203;48.976;8.306;2022-07-05T11:22:04;5.75;;;5.35;;
10315;SDS011;5203;48.976;8.306;2022-07-05T11:24:31;5.28;;;5.07;;
10315;SDS011;5203;48.976;8.306;2022-07-05T11:26:58;5.40;;;5.20;;
10315;SDS011;5203;48.976;8.306;2022-07-05T11:29:44;6.22;;;5.65;;
10315;SDS011;5203;48.976;8.306;2022-07-05T11:34:44;5.40;;;5.10;;
10315;SDS011;5203;48.976;8.306;2022-07-05T11:37:21;5.40;;;5.10;;
10315;SDS011;5203;48.976;8.306;2022-07-05T11:45:07;6.50;;;6.20;;
10315;SDS011;5203;48.976;8.306;2022-07-05T11:47:34;5.82;;;5.53;;
10315;SDS011;5203;48.976;8.306;2022-07-05T11:50:00;6.38;;;5.90;;
10315;SDS011;5203;48.976;8.306;2022-07-05T11:52:27;6.20;;;5.80;;
10315;SDS011;5203;48.976;8.306;2022-07-05T11:54:54;6.00;;;5.70;;
10315;SDS011;5203;48.976;8.306;2022-07-05T11:57:21;6.13;;;5.72;;
10315;SDS011;5203;48.976;8.306;2022-07-05T11:59:48;6.03;;;5.57;;
10315;SDS011;5203;48.976;8.306;2022-07-05T12:02:14;5.57;;;5.18;;
10315;SDS011;5203;48.976;8.306;2022-07-05T12:04:40;5.60;;;5.20;;
10315;SDS011;5203;48.976;8.306;2022-07-05T12:07:23;5.57;;;5.32;;
10315;SDS011;5203;48.976;8.306;2022-07-05T12:09:51;5.57;;;5.32;;
10315;SDS011;5203;48.976;8.306;2022-07-05T12:12:36;5.70;;;5.18;;
10315;SDS011;5203;48.976;8.306;2022-07-05T12:15:10;5.57;;;5.18;;
10315;SDS011;5203;48.976;8.306;2022-07-05T12:17:40;5.65;;;5.35;;
10315;SDS011;5203;48.976;8.306;2022-07-05T12:20:08;5.57;;;5.28;;
10315;SDS011;5203;48.976;8.306;2022-07-05T12:22:42;5.45;;;5.15;;
10315;SDS011;5203;48.976;8.306;2022-07-05T12:25:16;5.90;;;5.50;;
10315;SDS011;5203;48.976;8.306;2022-07-05T12:27:49;5.80;;;5.50;;
10315;SDS011;5203;48.976;8.306;2022-07-05T12:30:17;5.93;;;5.63;;
10315;SDS011;5203;48.976;8.306;2022-07-05T12:33:03;6.20;;;5.60;;
10315;SDS011;5203;48.976;8.306;2022-07-05T12:35:43;5.95;;;5.65;;
10315;SDS011;5203;48.976;8.306;2022-07-05T12:38:10;6.03;;;5.53;;
10315;SDS011;5203;48.976;8.306;2022-07-05T12:40:42;6.53;;;6.22;;
10315;SDS011;5203;48.976;8.306;2022-07-05T12:43:10;6.07;;;5.68;;
10315;SDS011;5203;48.976;8.306;2022-07-05T12:45:41;5.95;;;5.70;;
10315;SDS011;5203;48.976;8.306;2022-07-05T12:48:30;5.93;;;5.63;;
10315;SDS011;5203;48.976;8.306;2022-07-05T12:50:59;6.15;;;5.60;;
10315;SDS011;5203;48.976;8.306;2022-07-05T12:53:26;6.20;;;5.90;;
10315;SDS011;5203;48.976;8.306;2022-07-05T12:56:11;6.00;;;5.70;;
10315;SDS011;5203;48.976;8.306;2022-07-05T12:59:00;6.13;;;5.82;;
10315;SDS011;5203;48.976;8.306;2022-07-05T13:04:04;6.43;;;6.13;;
10315;SDS011;5203;48.976;8.306;2022-07-05T13:14:46;5.65;;;5.25;;
10315;SDS011;5203;48.976;8.306;2022-07-05T13:17:15;12.82;;;6.05;;
10315;SDS011;5203;48.976;8.306;2022-07-05T13:19:43;6.07;;;5.78;;
10315;SDS011;5203;48.976;8.306;2022-07-05T13:22:11;6.38;;;5.97;;
10315;SDS011;5203;48.976;8.306;2022-07-05T13:24:37;5.82;;;5.30;;
10315;SDS011;5203;48.976;8.306;2022-07-05T13:27:03;5.85;;;5.47;;
10315;SDS011;5203;48.976;8.306;2022-07-05T13:29:30;5.50;;;5.10;;
10315;SDS011;5203;48.976;8.306;2022-07-05T13:31:56;5.80;;;5.50;;
10315;SDS011;5203;48.976;8.306;2022-07-05T13:34:22;5.68;;;5.38;;
10315;SDS011;5203;48.976;8.306;2022-07-05T13:36:49;6.07;;;5.78;;
10315;SDS011;5203;48.976;8.306;2022-07-05T13:39:18;5.60;;;5.30;;
10315;SDS011;5203;48.976;8.306;2022-07-05T13:41:46;6.15;;;5.78;;
10315;SDS011;5203;48.976;8.306;2022-07-05T13:44:12;6.15;;;5.85;;
10315;SDS011;5203;48.976;8.306;2022-07-05T13:46:38;6.55;;;5.95;;
10315;SDS011;5203;48.976;8.306;2022-07-05T13:49:03;5.90;;;5.50;;
10315;SDS011;5203;48.976;8.306;2022-07-05T13:51:29;6.13;;;5.57;;
10315;SDS011;5203;48.976;8.306;2022-07-05T13:53:55;6.07;;;5.63;;
10315;SDS011;5203;48.976;8.306;2022-07-05T13:56:21;5.88;;;5.57;;
10315;SDS011;5203;48.976;8.306;2022-07-05T13:58:47;5.78;;;5.43;;
10315;SDS011;5203;48.976;8.306;2022-07-05T14:01:14;5.70;;;5.20;;
10315;SDS011;5203;48.976;8.306;2022-07-05T14:03:40;5.70;;;5.40;;
10315;SDS011;5203;48.976;8.306;2022-07-05T14:06:06;6.00;;;5.70;;
10315;SDS011;5203;48.976;8.306;2022-07-05T14:08:32;6.60;;;6.30;;
10315;SDS011;5203;48.976;8.306;2022-07-05T14:10:57;6.63;;;6.32;;
10315;SDS011;5203;48.976;8.306;2022-07-05T14:13:24;5.90;;;5.60;;
10315;SDS011;5203;48.976;8.306;2022-07-05T14:15:51;6.28;;;5.97;;
10315;SDS011;5203;48.976;8.306;2022-07-05T14:18:18;6.30;;;6.00;;
10315;SDS011;5203;48.976;8.306;2022-07-05T14:20:46;6.43;;;5.95;;
10315;SDS011;5203;48.976;8.306;2022-07-05T14:23:13;5.70;;;5.45;;
10315;SDS011;5203;48.976;8.306;2022-07-05T14:25:39;5.85;;;5.53;;
10315;SDS011;5203;48.976;8.306;2022-07-05T14:28:05;6.45;;;6.15;;
10315;SDS011;5203;48.976;8.306;2022-07-05T14:30:35;6.35;;;6.05;;
10315;SDS011;5203;48.976;8.306;2022-07-05T14:33:24;6.03;;;5.72;;
10315;SDS011;5203;48.976;8.306;2022-07-05T14:35:50;5.78;;;5.47;;
10315;SDS011;5203;48.976;8.306;2022-07-05T14:38:16;5.95;;;5.57;;
10315;SDS011;5203;48.976;8.306;2022-07-05T14:40:42;6.68;;;6.28;;
10315;SDS011;5203;48.976;8.306;2022-07-05T14:43:07;5.53;;;5.32;;
10315;SDS011;5203;48.976;8.306;2022-07-05T14:45:33;5.90;;;5.68;;
10315;SDS011;5203;48.976;8.306;2022-07-05T14:47:59;5.65;;;5.25;;
10315;SDS011;5203;48.976;8.306;2022-07-05T14:50:25;6.10;;;5.80;;
10315;SDS011;5203;48.976;8.306;2022-07-05T14:52:51;6.20;;;5.85;;
10315;SDS011;5203;48.976;8.306;2022-07-05T14:55:16;6.60;;;6.30;;
10315;SDS011;5203;48.976;8.306;2022-07-05T14:57:43;6.00;;;5.70;;
10315;SDS011;5203;48.976;8.306;2022-07-05T15:00:10;6.60;;;6.28;;
10315;SDS011;5203;48.976;8.306;2022-07-05T15:02:38;6.25;;;5.90;;
10315;SDS011;5203;48.976;8.306;2022-07-05T15:05:05;6.22;;;5.47;;
10315;SDS011;5203;48.976;8.306;2022-07-05T15:07:33;5.53;;;5.22;;
10315;SDS011;5203;48.976;8.306;2022-07-05T15:09:59;6.53;;;6.10;;
10315;SDS011;5203;48.976;8.306;2022-07-05T15:12:25;35.80;;;9.65;;
10315;SDS011;5203;48.976;8.306;2022-07-05T15:14:51;5.78;;;5.35;;
10315;SDS011;5203;48.976;8.306;2022-07-05T15:17:17;5.20;;;4.90;;
10315;SDS011;5203;48.976;8.306;2022-07-05T15:19:42;6.05;;;5.03;;
10315;SDS011;5203;48.976;8.306;2022-07-05T15:22:08;5.53;;;5.20;;
10315;SDS011;5203;48.976;8.306;2022-07-05T15:24:35;5.97;;;5.57;;
10315;SDS011;5203;48.976;8.306;2022-07-05T15:27:01;5.75;;;5.50;;
10315;SDS011;5203;48.976;8.306;2022-07-05T15:29:27;5.55;;;5.22;;
10315;SDS011;5203;48.976;8.306;2022-07-05T15:31:55;5.43;;;5.18;;
10315;SDS011;5203;48.976;8.306;2022-07-05T15:34:21;5.93;;;5.53;;
10315;SDS011;5203;48.976;8.306;2022-07-05T15:36:47;5.95;;;5.55;;
10315;SDS011;5203;48.976;8.306;2022-07-05T15:39:13;5.78;;;5.25;;
10315;SDS011;5203;48.976;8.306;2022-07-05T15:41:39;5.85;;;5.40;;
10315;SDS011;5203;48.976;8.306;2022-07-05T15:44:05;5.47;;;5.18;;
10315;SDS011;5203;48.976;8.306;2022-07-05T15:46:31;6.03;;;5.68;;
10315;SDS011;5203;48.976;8.306;2022-07-05T15:49:16;6.03;;;5.68;;
10315;SDS011;5203;48.976;8.306;2022-07-05T15:51:42;5.80;;;5.35;;
10315;SDS011;5203;48.976;8.306;2022-07-05T15:54:09;5.97;;;5.65;;